createdAt,value
2023-04-19T00:00:08.508Z,100.00
2023-04-19T00:02:57.870Z,100.00
2023-04-19T00:05:26.432Z,100.00
2023-04-19T00:07:54.776Z,100.00
2023-04-19T00:10:22.727Z,100.00
2023-04-19T00:12:50.847Z,100.00
2023-04-19T00:15:19.291Z,100.00
2023-04-19T00:17:47.393Z,100.00
2023-04-19T00:20:15.699Z,100.00
2023-04-19T00:22:43.670Z,100.00
2023-04-19T00:25:11.910Z,100.00
2023-04-19T00:27:40.100Z,100.00
2023-04-19T00:30:09.564Z,100.00
2023-04-19T00:32:37.774Z,100.00
2023-04-19T00:35:06.256Z,100.00
2023-04-19T00:37:34.279Z,100.00
2023-04-19T00:40:02.307Z,100.00
2023-04-19T00:42:30.278Z,100.00
2023-04-19T00:44:58.333Z,100.00
2023-04-19T00:47:26.317Z,100.00
2023-04-19T00:49:54.320Z,100.00
2023-04-19T00:52:23.313Z,100.00
2023-04-19T00:54:52.032Z,100.00
2023-04-19T00:57:22.728Z,100.00
2023-04-19T00:59:52.244Z,100.00
2023-04-19T01:02:21.300Z,100.00
2023-04-19T01:04:51.987Z,100.00
2023-04-19T01:07:20.884Z,100.00
2023-04-19T01:09:49.498Z,100.00
2023-04-19T01:12:17.701Z,100.00
2023-04-19T01:14:45.772Z,100.00
2023-04-19T01:17:14.335Z,100.00
2023-04-19T01:19:42.745Z,100.00
2023-04-19T01:22:16.798Z,100.00
2023-04-19T01:24:44.890Z,100.00
2023-04-19T01:27:14.191Z,100.00
2023-04-19T01:29:42.335Z,100.00
2023-04-19T01:32:10.279Z,100.00
2023-04-19T01:34:39.220Z,100.00
2023-04-19T01:37:07.700Z,100.00
2023-04-19T01:39:35.879Z,100.00
2023-04-19T01:42:04.447Z,100.00
2023-04-19T01:44:32.717Z,100.00
2023-04-19T01:47:01.400Z,100.00
2023-04-19T01:49:29.496Z,100.00
2023-04-19T01:51:57.547Z,100.00
2023-04-19T01:54:25.933Z,100.00
2023-04-19T01:56:54.013Z,100.00
2023-04-19T01:59:22.041Z,100.00
2023-04-19T02:01:50.241Z,100.00
2023-04-19T02:04:23.795Z,100.00
2023-04-19T02:06:54.944Z,100.00
2023-04-19T02:09:23.270Z,100.00
2023-04-19T02:11:51.213Z,100.00
2023-04-19T02:14:19.989Z,100.00
2023-04-19T02:16:49.209Z,100.00
2023-04-19T02:19:18.041Z,100.00
2023-04-19T02:21:46.156Z,100.00
2023-04-19T02:24:15.650Z,100.00
2023-04-19T02:26:43.780Z,100.00
2023-04-19T02:29:12.052Z,100.00
2023-04-19T02:31:40.260Z,100.00
2023-04-19T02:34:10.456Z,100.00
2023-04-19T02:36:40.686Z,100.00
2023-04-19T02:39:08.951Z,100.00
2023-04-19T02:41:39.529Z,100.00
2023-04-19T02:44:07.966Z,100.00
2023-04-19T02:46:36.366Z,100.00
2023-04-19T02:49:04.890Z,100.00
2023-04-19T02:51:33.508Z,100.00
2023-04-19T02:54:01.632Z,100.00
2023-04-19T02:56:29.840Z,100.00
2023-04-19T02:59:01.282Z,100.00
2023-04-19T03:01:31.877Z,100.00
2023-04-19T03:04:02.355Z,100.00
2023-04-19T03:06:31.166Z,100.00
2023-04-19T03:08:59.411Z,100.00
2023-04-19T03:11:28.623Z,100.00
2023-04-19T03:13:56.615Z,100.00
2023-04-19T03:16:24.806Z,100.00
2023-04-19T03:18:54.009Z,100.00
2023-04-19T03:21:27.357Z,100.00
2023-04-19T03:23:56.167Z,100.00
2023-04-19T03:26:25.011Z,100.00
2023-04-19T03:28:54.982Z,100.00
2023-04-19T03:31:45.423Z,100.00
2023-04-19T03:34:15.297Z,100.00
2023-04-19T03:36:47.738Z,100.00
2023-04-19T03:39:15.684Z,100.00
2023-04-19T03:41:44.799Z,100.00
2023-04-19T03:44:36.224Z,100.00
2023-04-19T03:47:06.135Z,100.00
2023-04-19T03:49:39.292Z,100.00
2023-04-19T03:52:08.230Z,100.00
2023-04-19T03:54:36.993Z,100.00
2023-04-19T03:57:07.080Z,100.00
2023-04-19T03:59:36.448Z,100.00
2023-04-19T04:02:06.491Z,100.00
2023-04-19T04:04:36.141Z,100.00
2023-04-19T04:07:04.601Z,100.00
2023-04-19T04:09:32.842Z,100.00
2023-04-19T04:12:00.945Z,100.00
2023-04-19T04:14:29.498Z,100.00
2023-04-19T04:16:57.839Z,100.00
2023-04-19T04:19:26.290Z,100.00
2023-04-19T04:21:58.590Z,100.00
2023-04-19T04:24:28.193Z,100.00
2023-04-19T04:27:23.780Z,100.00
2023-04-19T04:29:54.623Z,100.00
2023-04-19T04:32:23.766Z,100.00
2023-04-19T04:34:55.099Z,100.00
2023-04-19T04:37:34.052Z,100.00
2023-04-19T04:40:06.781Z,100.00
2023-04-19T04:42:35.712Z,100.00
2023-04-19T04:45:04.797Z,100.00
2023-04-19T04:47:35.020Z,100.00
2023-04-19T04:50:07.555Z,100.00
2023-04-19T04:52:35.749Z,100.00
2023-04-19T04:55:34.047Z,100.00
2023-04-19T04:58:02.830Z,100.00
2023-04-19T05:00:40.877Z,100.00
2023-04-19T05:03:11.277Z,100.00
2023-04-19T05:05:45.185Z,100.00
2023-04-19T05:08:13.598Z,100.00
2023-04-19T05:10:44.184Z,100.00
2023-04-19T05:13:14.108Z,100.00
2023-04-19T05:15:42.225Z,100.00
2023-04-19T05:18:10.764Z,100.00
2023-04-19T05:20:39.125Z,100.00
2023-04-19T05:23:13.268Z,100.00
2023-04-19T05:25:42.342Z,100.00
2023-04-19T05:28:13.433Z,100.00
2023-04-19T05:30:53.875Z,100.00
2023-04-19T05:33:24.488Z,100.00
2023-04-19T05:35:56.272Z,100.00
2023-04-19T05:38:24.272Z,100.00
2023-04-19T05:40:57.116Z,100.00
2023-04-19T05:43:25.069Z,100.00
2023-04-19T05:45:55.350Z,100.00
2023-04-19T05:48:23.506Z,100.00
2023-04-19T05:51:19.404Z,100.00
2023-04-19T05:54:12.856Z,100.00
2023-04-19T05:56:42.149Z,100.00
2023-04-19T05:59:11.653Z,100.00
2023-04-19T06:01:39.834Z,100.00
2023-04-19T06:04:08.929Z,100.00
2023-04-19T06:06:38.190Z,100.00
2023-04-19T06:09:07.376Z,100.00
2023-04-19T06:11:43.102Z,100.00
2023-04-19T06:14:17.595Z,100.00
2023-04-19T06:16:46.275Z,100.00
2023-04-19T06:19:14.357Z,100.00
2023-04-19T06:21:42.456Z,100.00
2023-04-19T06:24:12.836Z,100.00
2023-04-19T06:26:41.137Z,100.00
2023-04-19T06:29:09.135Z,100.00
2023-04-19T06:31:37.231Z,100.00
2023-04-19T06:34:07.943Z,100.00
2023-04-19T06:36:36.403Z,100.00
2023-04-19T06:39:04.421Z,100.00
2023-04-19T06:41:32.521Z,100.00
2023-04-19T06:44:01.224Z,100.00
2023-04-19T06:46:29.596Z,100.00
2023-04-19T06:48:57.653Z,100.00
2023-04-19T06:51:26.036Z,100.00
2023-04-19T06:53:54.245Z,100.00
2023-04-19T06:56:45.239Z,100.00
2023-04-19T06:59:19.186Z,100.00
2023-04-19T07:01:49.074Z,100.00
2023-04-19T07:04:17.924Z,100.00
2023-04-19T07:06:53.046Z,100.00
2023-04-19T07:09:21.166Z,100.00
2023-04-19T07:11:51.304Z,100.00
2023-04-19T07:14:20.864Z,100.00
2023-04-19T07:16:50.746Z,100.00
2023-04-19T07:19:40.378Z,100.00
2023-04-19T07:22:08.568Z,100.00
2023-04-19T07:24:40.423Z,100.00
2023-04-19T07:27:09.225Z,100.00
2023-04-19T07:29:39.129Z,100.00
2023-04-19T07:32:07.415Z,100.00
2023-04-19T07:34:38.112Z,100.00
2023-04-19T07:37:06.268Z,100.00
2023-04-19T07:39:34.411Z,100.00
2023-04-19T07:42:03.191Z,100.00
2023-04-19T07:44:31.685Z,100.00
2023-04-19T07:47:09.694Z,100.00
2023-04-19T07:49:38.465Z,100.00
2023-04-19T07:52:09.331Z,100.00
2023-04-19T07:54:39.395Z,99.65
2023-04-19T07:57:07.541Z,99.02
2023-04-19T07:59:38.579Z,99.02
2023-04-19T08:02:07.701Z,99.67
2023-04-19T08:04:38.097Z,98.56
2023-04-19T08:07:06.917Z,98.41
2023-04-19T08:09:38.320Z,99.57
2023-04-19T08:12:08.124Z,99.94
2023-04-19T08:14:51.566Z,100.00
2023-04-19T08:17:36.629Z,100.00
2023-04-19T08:20:15.130Z,100.00
2023-04-19T08:22:43.445Z,100.00
2023-04-19T08:25:14.598Z,99.76
2023-04-19T08:27:45.002Z,99.78
2023-04-19T08:30:13.658Z,100.00
2023-04-19T08:32:43.188Z,99.41
2023-04-19T08:35:14.222Z,99.95
2023-04-19T08:37:43.144Z,99.18
2023-04-19T08:40:11.888Z,98.89
2023-04-19T08:42:40.264Z,99.49
2023-04-19T08:45:26.789Z,99.55
2023-04-19T08:48:04.248Z,99.49
2023-04-19T08:50:38.923Z,99.55
2023-04-19T08:53:25.621Z,98.90
2023-04-19T09:01:22.541Z,98.29
2023-04-19T09:06:28.431Z,93.67
2023-04-19T09:11:49.860Z,92.78
2023-04-19T09:14:20.761Z,92.47
2023-04-19T09:16:52.484Z,91.40
2023-04-19T09:19:27.399Z,90.38
2023-04-19T09:22:13.593Z,89.85
2023-04-19T09:27:14.122Z,89.80
2023-04-19T09:29:42.574Z,89.56
2023-04-19T09:37:08.420Z,83.36
2023-04-19T09:41:08.256Z,79.62
2023-04-19T09:44:01.509Z,78.33
2023-04-19T09:46:37.223Z,74.76
2023-04-19T09:49:25.318Z,73.15
2023-04-19T09:52:05.944Z,73.81
2023-04-19T09:54:34.312Z,71.11
2023-04-19T09:57:04.045Z,65.64
2023-04-19T09:59:33.897Z,63.74
2023-04-19T10:02:06.271Z,60.87
2023-04-19T10:04:54.624Z,58.60
2023-04-19T10:07:30.536Z,56.73
2023-04-19T10:12:58.573Z,56.30
2023-04-19T10:15:22.730Z,55.45
2023-04-19T10:17:51.578Z,54.10
2023-04-19T10:20:41.743Z,52.86
2023-04-19T10:23:10.332Z,53.25
2023-04-19T10:25:39.657Z,52.49
2023-04-19T10:28:07.842Z,51.74
2023-04-19T10:30:36.815Z,51.53
2023-04-19T10:33:07.198Z,49.77
2023-04-19T10:35:38.105Z,49.25
2023-04-19T10:38:07.031Z,48.74
2023-04-19T10:40:57.327Z,48.56
2023-04-19T10:43:26.982Z,49.35
2023-04-19T10:45:59.015Z,49.27
2023-04-19T10:48:46.435Z,50.85
2023-04-19T10:51:39.497Z,52.39
2023-04-19T10:54:27.642Z,52.35
2023-04-19T10:57:02.825Z,50.59
2023-04-19T10:59:37.888Z,52.24
2023-04-19T11:02:29.123Z,51.50
2023-04-19T11:04:58.754Z,52.76
2023-04-19T11:07:29.612Z,51.82
2023-04-19T11:09:58.761Z,51.60
2023-04-19T11:12:28.426Z,51.18
2023-04-19T11:15:02.169Z,51.79
2023-04-19T11:17:32.502Z,52.49
2023-04-19T11:20:09.646Z,53.29
2023-04-19T11:22:43.236Z,54.91
2023-04-19T11:25:20.846Z,57.73
2023-04-19T11:27:53.553Z,62.15
2023-04-19T11:30:40.126Z,67.08
2023-04-19T11:33:08.688Z,67.21
2023-04-19T11:35:37.202Z,65.84
2023-04-19T11:38:05.678Z,63.36
2023-04-19T11:40:38.544Z,60.49
2023-04-19T11:43:06.664Z,58.22
2023-04-19T11:45:42.534Z,55.79
2023-04-19T11:48:17.561Z,53.50
2023-04-19T11:50:46.919Z,52.49
2023-04-19T11:53:17.520Z,52.41
2023-04-19T11:55:57.843Z,51.17
2023-04-19T11:58:29.972Z,50.67
2023-04-19T12:01:07.844Z,51.06
2023-04-19T12:04:01.371Z,51.34
2023-04-19T12:06:33.425Z,50.88
2023-04-19T12:09:08.504Z,50.89
2023-04-19T12:11:52.359Z,50.39
2023-04-19T12:14:23.107Z,51.00
2023-04-19T12:17:11.573Z,51.89
2023-04-19T12:19:44.359Z,54.49
2023-04-19T12:22:22.121Z,56.74
2023-04-19T12:24:54.471Z,57.28
2023-04-19T12:27:22.848Z,59.78
2023-04-19T12:29:51.195Z,63.52
2023-04-19T12:32:19.560Z,63.64
2023-04-19T12:34:48.112Z,64.82
2023-04-19T12:37:16.269Z,63.90
2023-04-19T12:39:48.002Z,64.38
2023-04-19T12:42:18.070Z,64.07
2023-04-19T12:44:47.714Z,65.84
2023-04-19T12:47:16.532Z,68.85
2023-04-19T12:49:44.777Z,70.22
2023-04-19T12:52:13.039Z,71.43
2023-04-19T12:54:41.545Z,74.03
2023-04-19T12:57:09.914Z,73.10
2023-04-19T12:59:38.083Z,76.97
2023-04-19T13:02:07.407Z,78.48
2023-04-19T13:04:36.774Z,79.20
2023-04-19T13:07:05.293Z,80.26
2023-04-19T13:09:35.701Z,78.54
2023-04-19T13:12:05.771Z,76.30
2023-04-19T13:14:33.967Z,77.66
2023-04-19T13:17:02.478Z,80.32
2023-04-19T13:19:31.190Z,80.60
2023-04-19T13:21:59.275Z,79.16
2023-04-19T13:24:30.491Z,79.74
2023-04-19T13:26:58.571Z,78.26
2023-04-19T13:29:26.835Z,77.36
2023-04-19T13:31:55.428Z,77.88
2023-04-19T13:34:23.445Z,77.58
2023-04-19T13:36:51.774Z,76.77
2023-04-19T13:39:19.793Z,75.67
2023-04-19T13:41:48.964Z,83.02
2023-04-19T13:44:17.543Z,93.73
2023-04-19T13:46:46.001Z,98.25
2023-04-19T13:49:17.665Z,99.95
2023-04-19T13:51:50.627Z,100.00
2023-04-19T13:54:19.953Z,100.00
2023-04-19T13:56:51.399Z,100.00
2023-04-19T13:59:21.064Z,100.00
2023-04-19T14:01:49.457Z,100.00
2023-04-19T14:04:18.378Z,100.00
2023-04-19T14:06:46.792Z,100.00
2023-04-19T14:09:15.798Z,100.00
2023-04-19T14:11:44.299Z,100.00
2023-04-19T14:14:12.277Z,100.00
2023-04-19T14:16:40.719Z,100.00
2023-04-19T14:19:08.758Z,100.00
2023-04-19T14:21:38.390Z,100.00
2023-04-19T14:24:06.703Z,100.00
2023-04-19T14:26:35.036Z,100.00
2023-04-19T14:29:03.673Z,100.00
2023-04-19T14:31:31.792Z,100.00
2023-04-19T14:34:00.041Z,100.00
2023-04-19T14:36:28.383Z,100.00
2023-04-19T14:38:56.791Z,100.00
2023-04-19T14:41:25.292Z,100.00
2023-04-19T14:43:55.666Z,100.00
2023-04-19T14:46:26.917Z,100.00
2023-04-19T14:48:55.077Z,100.00
2023-04-19T14:51:23.125Z,100.00
2023-04-19T14:53:51.354Z,100.00
2023-04-19T14:56:19.992Z,100.00
2023-04-19T14:58:51.225Z,100.00
2023-04-19T15:01:19.635Z,100.00
2023-04-19T15:03:48.014Z,100.00
2023-04-19T15:06:17.923Z,100.00
2023-04-19T15:08:47.120Z,100.00
2023-04-19T15:11:15.311Z,100.00
2023-04-19T15:13:43.894Z,100.00
2023-04-19T15:16:12.180Z,100.00
2023-04-19T15:18:40.638Z,100.00
2023-04-19T15:21:08.922Z,100.00
2023-04-19T15:23:37.301Z,100.00
2023-04-19T15:26:05.507Z,100.00
2023-04-19T15:28:36.981Z,100.00
2023-04-19T15:31:07.839Z,100.00
2023-04-19T15:33:36.791Z,100.00
2023-04-19T15:36:05.575Z,100.00
2023-04-19T15:38:33.689Z,100.00
2023-04-19T15:41:01.932Z,100.00
2023-04-19T15:43:30.272Z,100.00
2023-04-19T15:45:58.972Z,100.00
2023-04-19T15:48:28.363Z,100.00
2023-04-19T15:50:59.127Z,100.00
2023-04-19T15:53:27.734Z,100.00
2023-04-19T15:55:56.737Z,100.00
2023-04-19T15:58:24.919Z,100.00
2023-04-19T16:00:54.092Z,100.00
2023-04-19T16:03:23.883Z,100.00
2023-04-19T16:05:54.134Z,100.00
2023-04-19T16:08:22.338Z,100.00
2023-04-19T16:10:50.473Z,100.00
2023-04-19T16:13:18.577Z,100.00
2023-04-19T16:15:46.866Z,100.00
2023-04-19T16:18:14.922Z,100.00
2023-04-19T16:20:43.108Z,100.00
2023-04-19T16:23:11.187Z,100.00
2023-04-19T16:25:41.709Z,100.00
2023-04-19T16:28:14.114Z,100.00
2023-04-19T16:30:44.467Z,100.00
2023-04-19T16:33:13.213Z,100.00
2023-04-19T16:35:41.590Z,100.00
2023-04-19T16:38:09.749Z,100.00
2023-04-19T16:40:37.926Z,100.00
2023-04-19T16:43:06.590Z,100.00
2023-04-19T16:45:34.833Z,100.00
2023-04-19T16:48:05.837Z,100.00
2023-04-19T16:50:34.338Z,100.00
2023-04-19T16:53:02.772Z,100.00
2023-04-19T16:55:32.801Z,100.00
2023-04-19T16:58:00.925Z,100.00
2023-04-19T17:00:28.998Z,100.00
2023-04-19T17:02:58.082Z,100.00
2023-04-19T17:05:26.168Z,100.00
2023-04-19T17:07:56.601Z,100.00
2023-04-19T17:10:26.442Z,100.00
2023-04-19T17:12:55.742Z,100.00
2023-04-19T17:15:24.200Z,100.00
2023-04-19T17:17:53.488Z,100.00
2023-04-19T17:20:22.350Z,100.00
2023-04-19T17:22:51.553Z,100.00
2023-04-19T17:25:21.777Z,100.00
2023-04-19T17:27:50.970Z,100.00
2023-04-19T17:30:19.081Z,100.00
2023-04-19T17:32:47.380Z,100.00
2023-04-19T17:35:16.123Z,100.00
2023-04-19T17:37:44.577Z,100.00
2023-04-19T17:40:12.844Z,100.00
2023-04-19T17:42:41.837Z,100.00
2023-04-19T17:45:11.363Z,100.00
2023-04-19T17:47:40.341Z,100.00
2023-04-19T17:50:13.306Z,100.00
2023-04-19T17:52:43.898Z,100.00
2023-04-19T17:55:14.446Z,100.00
2023-04-19T17:57:44.303Z,100.00
2023-04-19T18:00:15.717Z,100.00
2023-04-19T18:02:43.881Z,100.00
2023-04-19T18:05:14.079Z,100.00
2023-04-19T18:07:42.157Z,100.00
2023-04-19T18:10:11.050Z,100.00
2023-04-19T18:12:39.123Z,100.00
2023-04-19T18:15:08.015Z,100.00
2023-04-19T18:17:36.268Z,100.00
2023-04-19T18:20:07.079Z,100.00
2023-04-19T18:22:36.285Z,100.00
2023-04-19T18:25:04.866Z,100.00
2023-04-19T18:27:33.072Z,100.00
2023-04-19T18:30:05.206Z,100.00
2023-04-19T18:32:34.117Z,100.00
2023-04-19T18:35:08.865Z,100.00
2023-04-19T18:37:37.031Z,100.00
2023-04-19T18:40:07.322Z,100.00
2023-04-19T18:42:36.605Z,100.00
2023-04-19T18:45:08.237Z,100.00
2023-04-19T18:47:36.571Z,100.00
2023-04-19T18:50:06.668Z,100.00
2023-04-19T18:52:39.572Z,100.00
2023-04-19T18:55:09.183Z,100.00
2023-04-19T18:57:38.971Z,100.00
2023-04-19T19:00:14.477Z,100.00
2023-04-19T19:02:44.043Z,100.00
2023-04-19T19:05:13.945Z,100.00
2023-04-19T19:07:42.750Z,100.00
2023-04-19T19:10:20.798Z,100.00
2023-04-19T19:12:50.193Z,100.00
2023-04-19T19:15:21.155Z,100.00
2023-04-19T19:17:50.636Z,100.00
2023-04-19T19:20:19.841Z,100.00
2023-04-19T19:22:48.599Z,100.00
2023-04-19T19:25:18.217Z,100.00
2023-04-19T19:28:05.628Z,100.00
2023-04-19T19:30:39.850Z,100.00
2023-04-19T19:33:08.390Z,100.00
2023-04-19T19:35:36.722Z,100.00
2023-04-19T19:38:04.742Z,100.00
2023-04-19T19:40:33.171Z,100.00
2023-04-19T19:43:02.338Z,100.00
2023-04-19T19:45:31.686Z,100.00
2023-04-19T19:48:00.747Z,100.00
2023-04-19T19:53:01.848Z,100.00
2023-04-19T19:55:30.668Z,100.00
2023-04-19T20:03:02.766Z,100.00
2023-04-19T20:05:34.049Z,100.00
2023-04-19T20:08:20.376Z,100.00
2023-04-19T20:10:48.456Z,100.00
2023-04-19T20:13:17.066Z,100.00
2023-04-19T20:15:47.319Z,100.00
2023-04-19T20:18:17.275Z,100.00
2023-04-19T20:20:46.160Z,100.00
2023-04-19T20:23:15.733Z,100.00
2023-04-19T20:25:45.276Z,100.00
2023-04-19T20:28:15.270Z,100.00
2023-04-19T20:30:43.269Z,100.00
2023-04-19T20:33:13.157Z,100.00
2023-04-19T20:35:42.073Z,100.00
2023-04-19T20:38:10.119Z,100.00
2023-04-19T20:40:38.121Z,100.00
2023-04-19T20:43:06.395Z,100.00
2023-04-19T20:45:34.745Z,100.00
2023-04-19T20:48:03.257Z,100.00
2023-04-19T20:50:31.640Z,100.00
2023-04-19T20:53:01.404Z,100.00
2023-04-19T20:55:29.534Z,100.00
2023-04-19T20:57:57.894Z,100.00
2023-04-19T21:00:25.997Z,100.00
2023-04-19T21:02:54.334Z,100.00
2023-04-19T21:05:22.496Z,100.00
2023-04-19T21:07:50.807Z,100.00
2023-04-19T21:10:19.313Z,100.00
2023-04-19T21:12:47.923Z,100.00
2023-04-19T21:15:16.498Z,100.00
2023-04-19T21:17:44.699Z,100.00
2023-04-19T21:20:14.334Z,100.00
2023-04-19T21:22:44.052Z,100.00
2023-04-19T21:25:12.988Z,100.00
2023-04-19T21:27:42.163Z,100.00
2023-04-19T21:30:12.670Z,100.00
2023-04-19T21:32:40.711Z,100.00
2023-04-19T21:35:09.355Z,100.00
2023-04-19T21:37:38.217Z,100.00
2023-04-19T21:40:07.251Z,100.00
2023-04-19T21:42:36.042Z,100.00
2023-04-19T21:45:04.846Z,100.00
2023-04-19T21:47:33.004Z,100.00
2023-04-19T21:50:01.442Z,100.00
2023-04-19T21:52:29.568Z,100.00
2023-04-19T21:54:57.549Z,100.00
2023-04-19T21:57:27.137Z,100.00
2023-04-19T21:59:55.376Z,100.00
2023-04-19T22:02:23.983Z,100.00
2023-04-19T22:04:53.910Z,100.00
2023-04-19T22:07:24.101Z,100.00
2023-04-19T22:09:52.433Z,100.00
2023-04-19T22:12:20.685Z,100.00
2023-04-19T22:14:49.536Z,100.00
2023-04-19T22:17:21.480Z,100.00
2023-04-19T22:19:49.595Z,100.00
2023-04-19T22:22:17.681Z,100.00
2023-04-19T22:24:56.734Z,100.00
2023-04-19T22:27:26.069Z,100.00
2023-04-19T22:29:54.096Z,100.00
2023-04-19T22:32:22.370Z,100.00
2023-04-19T22:34:50.759Z,100.00
2023-04-19T22:37:19.704Z,100.00
2023-04-19T22:39:47.736Z,100.00
2023-04-19T22:42:16.099Z,100.00
2023-04-19T22:44:44.321Z,100.00
2023-04-19T22:47:13.143Z,100.00
2023-04-19T22:49:43.205Z,100.00
2023-04-19T22:52:14.700Z,100.00
2023-04-19T22:54:43.094Z,100.00
2023-04-19T22:57:12.128Z,100.00
2023-04-19T22:59:40.847Z,100.00
2023-04-19T23:02:09.001Z,100.00
2023-04-19T23:04:38.342Z,100.00
2023-04-19T23:07:07.043Z,100.00
2023-04-19T23:09:39.111Z,100.00
2023-04-19T23:12:08.532Z,100.00
2023-04-19T23:14:38.795Z,100.00
2023-04-19T23:17:07.417Z,100.00
2023-04-19T23:19:37.648Z,100.00
2023-04-19T23:22:05.687Z,100.00
2023-04-19T23:24:36.342Z,100.00
2023-04-19T23:27:04.745Z,100.00
2023-04-19T23:29:32.688Z,100.00
2023-04-19T23:32:01.965Z,100.00
2023-04-19T23:34:30.375Z,100.00
2023-04-19T23:36:58.569Z,100.00
2023-04-19T23:39:26.886Z,100.00
2023-04-19T23:41:55.045Z,100.00
2023-04-19T23:44:23.068Z,100.00
2023-04-19T23:46:51.440Z,100.00
2023-04-19T23:49:19.686Z,100.00
2023-04-19T23:51:50.773Z,100.00
2023-04-19T23:54:21.337Z,100.00
2023-04-19T23:56:52.464Z,100.00
2023-04-19T23:59:20.785Z,100.00
